Travis Air Force Base
KSUU : rendu visible

Aérodrome :











RETROUVEZ-NOUS SUR...

 
LOGIN :

S'inscrire | Disclaimer

   EN    FR    IT 

 









Légende :    VFR   VFR Marginal   IFR   IFR Intensif   IFR Très Intensif
Visi : 
Plafond : 
>= 8 km
>= 3000ft
5 à 8 km
1000 à 3000 ft
1500m à 5 km
500 à 1000 ft
800 à 1500m
200 à 500 ft
< 800m
< 200 ft
Symboles :   Orages  Brouillard  Fortes neiges  Fortes précipitations  Vent > 20 kt






- Altitude de l'aérodrome : 62 ft


KSUU - Travis Air Force Base

DERNIER METAR :
  • 240658Z AUTO 21007KT 10SM CLR 06/04 A3004 RMK AO2 SLP179 T00630041 $

METARs EXPIRÉS :
  • 240558Z AUTO 23003KT 10SM CLR 07/04 A3003 RMK AO2 SLP176 T00720042 10195 20070 50005 $
  • 240458Z AUTO 19006KT 10SM CLR 07/05 A3003 RMK AO2 SLP176 T00700045 $

TAF TAF KSUU
Valide du 24 à 03h jusqu'au 25 à 09h UTC


240300Z 2403/2509 25009KT 9999 FEW180 QNH3000INS
BECMG 2406/2407 30012KT 9999 SKC QNH3002INS
BECMG 2500/2501 23010G15KT 9999 SKC QNH3008INS TX21/2422Z TN05/2414Z
FIR KZOA / Amérique du Nord



MET'MAP, la Météo Aéronautique d'un coup d'oeil ! - Copyright ORBIFLY Décembre 2007 - Disclaimer

ORBIFLY MET'MAP TEAM :

Programmation & Développement : Alexandra Zaïnal
Sur une idée originale de : Baudouin d'Aumeries
Assistance à la programmation : Marc-Olivier Méhu
Soutien technique & logistique : Manuel Goepfert

Contact : metmap@orbifly.com




SOURCES & CREDITS :

   NOAA       Earth
Advisory